Terminal Aerodrome Forecast
Issued by NWS Melbourne, FL

Current Version | Previous Version | Text Only | Print | Product List | Glossary On
Versions: 1 2 3 4 5 6 7 8 9 10 11 12 13 14 15
000
FTUS42 KMLB 251810 AAA
TAFVRB
TAF AMD
KVRB 251810Z 2518/2618 19014KT P6SM FEW040 BKN060
     FM252000 18008KT P6SM VCTS SCT035CB BKN060
     FM260100 21009KT P6SM SCT060 BKN200
     FM260900 23008KT P6SM SCT005 BKN020 OVC100
     FM261400 25012G20KT P6SM VCSH BKN035 OVC100=

USA.gov is the U.S. government's official web portal to all federal, state and local government web resources and services.